createdAt,value
2022-12-01T00:00:53.584Z,51.179237
2022-12-01T00:01:53.662Z,51.179226
2022-12-01T00:02:53.642Z,51.179222
2022-12-01T00:03:53.575Z,51.179226
2022-12-01T00:04:53.588Z,51.179234
2022-12-01T00:05:53.515Z,51.179199
2022-12-01T00:06:53.536Z,51.179222
2022-12-01T00:07:53.583Z,51.179218
2022-12-01T00:08:53.504Z,51.179195
2022-12-01T00:09:53.508Z,51.179207
2022-12-01T00:10:53.523Z,51.179211
2022-12-01T00:11:53.485Z,51.179222
2022-12-01T00:12:53.448Z,51.179241
2022-12-01T00:13:53.501Z,51.179218
2022-12-01T00:14:53.467Z,51.179192
2022-12-01T00:15:53.441Z,51.179180
2022-12-01T00:16:53.505Z,51.179214
2022-12-01T00:17:53.436Z,51.179214
2022-12-01T00:18:53.391Z,51.179184
2022-12-01T00:19:53.406Z,51.179203
2022-12-01T00:20:53.406Z,51.179192
2022-12-01T00:21:53.391Z,51.179222
2022-12-01T00:22:53.410Z,51.179222
2022-12-01T00:23:53.365Z,51.179207
2022-12-01T00:24:53.376Z,51.179230
2022-12-01T00:25:53.382Z,51.179222
2022-12-01T00:26:53.353Z,51.179241
2022-12-01T00:27:53.296Z,51.179241
2022-12-01T00:28:53.311Z,51.179241
2022-12-01T00:29:53.372Z,51.179237
2022-12-01T00:30:53.267Z,51.179245
2022-12-01T00:31:53.369Z,51.179230
2022-12-01T00:32:53.290Z,51.179226
2022-12-01T00:33:53.271Z,51.179230
2022-12-01T00:34:53.275Z,51.179218
2022-12-01T00:35:53.271Z,51.179241
2022-12-01T00:36:53.220Z,51.179207
2022-12-01T00:37:53.204Z,51.179195
2022-12-01T00:38:53.266Z,51.179203
2022-12-01T00:39:53.236Z,51.179203
2022-12-01T00:40:53.227Z,51.179214
2022-12-01T00:41:53.195Z,51.179218
2022-12-01T00:42:53.163Z,51.179211
2022-12-01T00:43:53.169Z,51.179211
2022-12-01T00:44:53.200Z,51.179245
2022-12-01T00:45:53.180Z,51.179298
2022-12-01T00:46:53.150Z,51.179279
2022-12-01T00:47:53.101Z,51.179256
2022-12-01T00:48:53.130Z,51.179222
2022-12-01T00:49:53.125Z,51.179214
2022-12-01T00:50:53.109Z,51.179237
2022-12-01T00:51:53.095Z,51.179226
2022-12-01T00:52:53.079Z,51.179253
2022-12-01T00:53:53.078Z,51.179276
2022-12-01T00:54:53.068Z,51.179264
2022-12-01T00:55:53.060Z,51.179241
2022-12-01T00:56:53.049Z,51.179207
2022-12-01T00:57:53.052Z,51.179211
2022-12-01T00:58:53.028Z,51.179180
2022-12-01T00:59:53.030Z,51.179165
2022-12-01T01:00:53.092Z,51.179188
2022-12-01T01:01:53.000Z,51.179226
2022-12-01T01:02:53.104Z,51.179214
2022-12-01T01:03:52.992Z,51.179218
2022-12-01T01:04:52.953Z,51.179230
2022-12-01T01:05:53.004Z,51.179199
2022-12-01T01:06:52.927Z,51.179161
2022-12-01T01:07:52.938Z,51.179146
2022-12-01T01:08:52.950Z,51.179165
2022-12-01T01:09:52.921Z,51.179157
2022-12-01T01:10:52.902Z,51.179188
2022-12-01T01:11:52.912Z,51.179176
2022-12-01T01:12:52.861Z,51.179199
2022-12-01T01:13:52.895Z,51.179230
2022-12-01T01:14:52.899Z,51.179188
2022-12-01T01:15:52.849Z,51.179165
2022-12-01T01:16:52.874Z,51.179176
2022-12-01T01:17:52.839Z,51.179180
2022-12-01T01:18:52.812Z,51.179192
2022-12-01T01:19:52.829Z,51.179211
2022-12-01T01:20:52.806Z,51.179234
2022-12-01T01:21:52.772Z,51.179230
2022-12-01T01:22:52.765Z,51.179214
2022-12-01T01:23:52.822Z,51.179142
2022-12-01T01:24:52.760Z,51.179180
2022-12-01T01:25:52.756Z,51.179256
2022-12-01T01:26:52.768Z,51.179203
2022-12-01T01:27:52.708Z,51.179203
2022-12-01T01:28:52.745Z,51.179195
2022-12-01T01:29:52.713Z,51.179211
2022-12-01T01:30:52.724Z,51.179184
2022-12-01T01:31:52.672Z,51.179222
2022-12-01T01:32:52.755Z,51.179211
2022-12-01T01:33:52.671Z,51.179047
2022-12-01T01:34:52.692Z,51.179241
2022-12-01T01:35:52.671Z,51.179222
2022-12-01T01:36:52.642Z,51.179253
2022-12-01T01:37:52.580Z,51.179276
2022-12-01T01:38:52.616Z,51.179279
2022-12-01T01:39:52.605Z,51.179276
2022-12-01T01:40:52.580Z,51.179268
2022-12-01T01:41:52.588Z,51.179287
2022-12-01T01:42:52.554Z,51.179298
2022-12-01T01:43:52.569Z,51.179272
2022-12-01T01:44:52.582Z,51.179279
2022-12-01T01:45:52.573Z,51.179279
2022-12-01T01:46:52.525Z,51.179264
2022-12-01T01:47:52.509Z,51.179310
2022-12-01T01:48:52.543Z,51.179253
2022-12-01T01:49:52.485Z,51.179214
2022-12-01T01:50:52.483Z,51.179188
2022-12-01T01:51:52.456Z,51.179218
2022-12-01T01:52:52.449Z,51.179264
2022-12-01T01:53:52.458Z,51.179199
2022-12-01T01:54:52.462Z,51.179085
2022-12-01T01:55:52.421Z,51.179161
2022-12-01T01:56:52.415Z,51.179279
2022-12-01T01:57:52.432Z,51.179291
2022-12-01T01:58:52.425Z,51.179317
2022-12-01T01:59:52.421Z,51.179279
2022-12-01T02:00:52.470Z,51.179287
2022-12-01T02:01:52.367Z,51.179317
2022-12-01T02:02:52.417Z,51.179295
2022-12-01T02:03:52.369Z,51.179264
2022-12-01T02:04:52.318Z,51.179222
2022-12-01T02:05:52.315Z,51.179279
2022-12-01T02:06:52.308Z,51.179207
2022-12-01T02:07:52.398Z,51.179195
2022-12-01T02:08:52.284Z,51.179211
2022-12-01T02:09:52.289Z,51.179218
2022-12-01T02:10:52.264Z,51.179226
2022-12-01T02:11:52.278Z,51.179291
2022-12-01T02:12:52.232Z,51.179241
2022-12-01T02:13:52.275Z,51.179256
2022-12-01T02:14:52.275Z,51.179256
2022-12-01T02:15:52.199Z,51.179245
2022-12-01T02:16:52.220Z,51.179180
2022-12-01T02:17:52.253Z,51.179237
2022-12-01T02:18:52.177Z,51.179276
2022-12-01T02:19:52.165Z,51.179344
2022-12-01T02:20:52.238Z,51.179298
2022-12-01T02:21:52.165Z,51.179222
2022-12-01T02:22:53.859Z,51.179211
2022-12-01T02:23:53.158Z,51.179234
2022-12-01T02:24:52.146Z,51.179207
2022-12-01T02:25:52.111Z,51.179226
2022-12-01T02:26:52.141Z,51.179245
2022-12-01T02:27:52.097Z,51.179214
2022-12-01T02:28:52.114Z,51.179218
2022-12-01T02:29:52.080Z,51.179199
2022-12-01T02:30:52.130Z,51.179222
2022-12-01T02:31:52.032Z,51.179222
2022-12-01T02:32:52.096Z,51.179245
2022-12-01T02:33:52.059Z,51.179241
2022-12-01T02:34:52.005Z,51.179249
2022-12-01T02:35:52.007Z,51.179230
2022-12-01T02:36:52.005Z,51.179207
2022-12-01T02:37:52.008Z,51.179207
2022-12-01T02:38:51.986Z,51.179195
2022-12-01T02:39:51.982Z,51.179199
2022-12-01T02:40:52.006Z,51.179203
2022-12-01T02:41:51.932Z,51.179207
2022-12-01T02:42:51.922Z,51.179192
2022-12-01T02:43:51.937Z,51.179218
2022-12-01T02:44:51.939Z,51.179237
2022-12-01T02:45:51.889Z,51.179253
2022-12-01T02:46:52.885Z,51.179260
2022-12-01T02:47:51.931Z,51.179230
2022-12-01T02:48:51.904Z,51.179222
2022-12-01T02:49:52.130Z,51.179230
2022-12-01T02:50:51.870Z,51.179234
2022-12-01T02:51:51.845Z,51.179241
2022-12-01T02:52:51.826Z,51.179218
2022-12-01T02:53:51.802Z,51.179234
2022-12-01T02:54:51.818Z,51.179253
2022-12-01T02:55:51.816Z,51.179245
2022-12-01T02:56:51.803Z,51.179241
2022-12-01T02:57:51.808Z,51.179264
2022-12-01T02:58:51.760Z,51.179264
2022-12-01T02:59:52.737Z,51.179245
2022-12-01T03:00:51.750Z,51.179214
2022-12-01T03:01:51.809Z,51.179214
2022-12-01T03:02:51.754Z,51.179234
2022-12-01T03:03:51.736Z,51.179276
2022-12-01T03:04:51.724Z,51.179287
2022-12-01T03:05:51.701Z,51.179276
2022-12-01T03:06:51.721Z,51.179276
2022-12-01T03:07:51.772Z,51.179230
2022-12-01T03:08:51.653Z,51.179337
2022-12-01T03:09:51.912Z,51.179302
2022-12-01T03:10:51.651Z,51.179260
2022-12-01T03:11:51.622Z,51.179253
2022-12-01T03:12:51.665Z,51.179249
2022-12-01T03:13:51.634Z,51.179249
2022-12-01T03:14:51.587Z,51.179234
2022-12-01T03:15:51.621Z,51.179218
2022-12-01T03:16:51.566Z,51.179237
2022-12-01T03:17:51.587Z,51.179245
2022-12-01T03:18:51.572Z,51.179234
2022-12-01T03:19:51.726Z,51.179241
2022-12-01T03:20:51.507Z,51.179260
2022-12-01T03:21:51.549Z,51.179249
2022-12-01T03:22:51.516Z,51.179253
2022-12-01T03:23:51.498Z,51.179256
2022-12-01T03:24:51.523Z,51.179211
2022-12-01T03:25:51.488Z,51.179249
2022-12-01T03:26:51.466Z,51.179241
2022-12-01T03:28:19.635Z,51.179222
2022-12-01T03:28:53.455Z,51.179184
2022-12-01T03:29:51.580Z,51.179173
2022-12-01T03:30:51.466Z,51.179169
2022-12-01T03:31:51.447Z,51.179188
2022-12-01T03:32:51.411Z,51.179237
2022-12-01T03:33:51.367Z,51.179253
2022-12-01T03:34:51.424Z,51.179245
2022-12-01T03:35:51.379Z,51.179195
2022-12-01T03:36:51.348Z,51.179161
2022-12-01T03:37:51.377Z,51.179119
2022-12-01T03:38:51.323Z,51.179104
2022-12-01T03:39:53.747Z,51.179131
2022-12-01T03:40:52.295Z,51.179157
2022-12-01T03:41:51.320Z,51.179161
2022-12-01T03:42:51.285Z,51.179241
2022-12-01T03:43:51.294Z,51.179249
2022-12-01T03:44:51.250Z,51.179184
2022-12-01T03:45:51.306Z,51.179211
2022-12-01T03:46:51.258Z,51.179207
2022-12-01T03:48:23.131Z,51.179180
2022-12-01T03:48:51.201Z,51.179192
2022-12-01T03:49:51.535Z,51.179180
2022-12-01T03:50:51.196Z,51.179184
2022-12-01T03:51:51.182Z,51.179195
2022-12-01T03:52:51.178Z,51.179203
2022-12-01T03:53:51.179Z,51.179192
2022-12-01T03:54:51.151Z,51.179176
2022-12-01T03:55:51.129Z,51.179157
2022-12-01T03:56:51.104Z,51.179142
2022-12-01T03:57:51.106Z,51.179184
2022-12-01T03:58:51.118Z,51.179188
2022-12-01T03:59:51.418Z,51.179184
2022-12-01T04:00:51.072Z,51.179207
2022-12-01T04:01:51.098Z,51.179207
2022-12-01T04:02:51.056Z,51.179180
2022-12-01T04:03:51.037Z,51.179188
2022-12-01T04:04:51.040Z,51.179180
2022-12-01T04:05:51.011Z,51.179180
2022-12-01T04:06:51.024Z,51.179192
2022-12-01T04:07:51.062Z,51.179188
2022-12-01T04:08:50.980Z,51.179176
2022-12-01T04:09:51.300Z,51.179192
2022-12-01T04:10:50.962Z,51.179222
2022-12-01T04:11:50.956Z,51.179199
2022-12-01T04:12:50.944Z,51.179237
2022-12-01T04:13:50.927Z,51.179211
2022-12-01T04:14:50.934Z,51.179203
2022-12-01T04:15:50.962Z,51.179188
2022-12-01T04:16:50.916Z,51.179214
2022-12-01T04:17:50.894Z,51.179161
2022-12-01T04:18:50.874Z,51.179176
2022-12-01T04:19:51.183Z,51.179184
2022-12-01T04:20:50.853Z,51.179207
2022-12-01T04:21:50.879Z,51.179192
2022-12-01T04:22:50.850Z,51.179180
2022-12-01T04:23:50.819Z,51.179173
2022-12-01T04:24:50.809Z,51.179180
2022-12-01T04:25:50.809Z,51.179173
2022-12-01T04:26:50.800Z,51.179184
2022-12-01T04:27:50.776Z,51.179218
2022-12-01T04:28:50.789Z,51.179188
2022-12-01T04:29:51.029Z,51.179188
2022-12-01T04:30:50.759Z,51.179184
2022-12-01T04:31:50.841Z,51.179203
2022-12-01T04:32:50.739Z,51.179222
2022-12-01T04:33:50.727Z,51.179226
2022-12-01T04:34:50.718Z,51.179214
2022-12-01T04:35:50.700Z,51.179207
2022-12-01T04:36:50.689Z,51.179199
2022-12-01T04:37:50.666Z,51.179173
2022-12-01T04:38:50.665Z,51.179203
2022-12-01T04:39:50.945Z,51.179237
2022-12-01T04:40:50.641Z,51.179173
2022-12-01T04:41:50.658Z,51.179111
2022-12-01T04:42:50.617Z,51.179138
2022-12-01T04:43:50.614Z,51.179192
2022-12-01T04:44:50.609Z,51.179188
2022-12-01T04:45:50.590Z,51.179195
2022-12-01T04:46:50.680Z,51.179234
2022-12-01T04:47:50.574Z,51.179226
2022-12-01T04:48:50.561Z,51.179211
2022-12-01T04:49:50.780Z,51.179199
2022-12-01T04:50:50.530Z,51.179211
2022-12-01T04:51:50.539Z,51.179237
2022-12-01T04:52:50.533Z,51.179195
2022-12-01T04:53:50.511Z,51.179214
2022-12-01T04:54:50.511Z,51.179237
2022-12-01T04:55:50.492Z,51.179226
2022-12-01T04:56:50.485Z,51.179230
2022-12-01T04:57:50.465Z,51.179207
2022-12-01T04:58:50.452Z,51.179276
2022-12-01T04:59:50.768Z,51.179249
2022-12-01T05:00:50.485Z,51.179211
2022-12-01T05:01:50.535Z,51.179169
2022-12-01T05:02:50.422Z,51.179131
2022-12-01T05:03:50.411Z,51.179237
2022-12-01T05:04:50.412Z,51.179253
2022-12-01T05:05:50.434Z,51.179245
2022-12-01T05:06:50.389Z,51.179249
2022-12-01T05:07:50.427Z,51.179237
2022-12-01T05:08:50.353Z,51.179218
2022-12-01T05:09:50.731Z,51.179253
2022-12-01T05:10:50.338Z,51.179253
2022-12-01T05:11:50.316Z,51.179226
2022-12-01T05:12:51.335Z,51.179256
2022-12-01T05:13:50.293Z,51.179283
2022-12-01T05:14:50.296Z,51.179279
2022-12-01T05:15:50.334Z,51.179302
2022-12-01T05:16:50.323Z,51.179283
2022-12-01T05:17:50.272Z,51.179260
2022-12-01T05:18:50.304Z,51.179253
2022-12-01T05:19:50.566Z,51.179226
2022-12-01T05:20:50.223Z,51.179234
2022-12-01T05:21:50.237Z,51.179272
2022-12-01T05:23:05.183Z,51.179264
2022-12-01T05:23:52.192Z,51.179264
2022-12-01T05:24:50.194Z,51.179199
2022-12-01T05:25:50.205Z,51.179237
2022-12-01T05:26:50.196Z,51.179241
2022-12-01T05:27:50.189Z,51.179272
2022-12-01T05:28:50.151Z,51.179272
2022-12-01T05:29:50.385Z,51.179287
2022-12-01T05:30:50.131Z,51.179295
2022-12-01T05:31:50.222Z,51.179272
2022-12-01T05:32:50.100Z,51.179245
2022-12-01T05:33:50.103Z,51.179260
2022-12-01T05:34:50.091Z,51.179264
2022-12-01T05:35:50.078Z,51.179298
2022-12-01T05:36:50.081Z,51.179276
2022-12-01T05:37:50.070Z,51.179264
2022-12-01T05:38:50.035Z,51.179264
2022-12-01T05:39:50.399Z,51.179295
2022-12-01T05:40:50.042Z,51.179295
2022-12-01T05:41:49.995Z,51.179260
2022-12-01T05:42:51.028Z,51.179241
2022-12-01T05:43:50.000Z,51.179241
2022-12-01T05:44:49.972Z,51.179226
2022-12-01T05:45:50.016Z,51.179211
2022-12-01T05:46:49.973Z,51.179218
2022-12-01T05:47:49.959Z,51.179218
2022-12-01T05:48:49.936Z,51.179237
2022-12-01T05:49:50.319Z,51.179241
2022-12-01T05:50:49.923Z,51.179226
2022-12-01T05:51:49.913Z,51.179214
2022-12-01T05:52:49.917Z,51.179226
2022-12-01T05:53:49.887Z,51.179260
2022-12-01T05:54:49.894Z,51.179260
2022-12-01T05:55:49.885Z,51.179306
2022-12-01T05:56:49.874Z,51.179306
2022-12-01T05:57:49.851Z,51.179295
2022-12-01T05:58:49.885Z,51.179279
2022-12-01T05:59:50.003Z,51.179287
2022-12-01T06:00:50.835Z,51.179276
2022-12-01T06:01:49.851Z,51.179276
2022-12-01T06:02:49.794Z,51.179256
2022-12-01T06:03:49.907Z,51.179291
2022-12-01T06:04:49.786Z,51.179295
2022-12-01T06:05:49.784Z,51.179317
2022-12-01T06:06:49.765Z,51.179356
2022-12-01T06:07:49.832Z,51.179348
2022-12-01T06:08:49.729Z,51.179310
2022-12-01T06:09:49.969Z,51.179291
2022-12-01T06:10:49.718Z,51.179287
2022-12-01T06:11:52.504Z,51.179264
2022-12-01T06:12:50.706Z,51.179268
2022-12-01T06:13:49.691Z,51.179287
2022-12-01T06:14:49.667Z,51.179272
2022-12-01T06:15:49.663Z,51.179264
2022-12-01T06:16:49.733Z,51.179310
2022-12-01T06:17:49.644Z,51.179314
2022-12-01T06:18:49.662Z,51.179325
2022-12-01T06:19:49.860Z,51.179317
2022-12-01T06:20:49.607Z,51.179295
2022-12-01T06:21:49.611Z,51.179283
2022-12-01T06:22:49.599Z,51.179287
2022-12-01T06:23:49.570Z,51.179268
2022-12-01T06:24:49.561Z,51.179298
2022-12-01T06:25:49.587Z,51.179234
2022-12-01T06:26:49.613Z,51.179234
2022-12-01T06:27:49.531Z,51.179291
2022-12-01T06:28:49.581Z,51.179317
2022-12-01T06:29:49.894Z,51.179260
2022-12-01T06:30:49.527Z,51.179253
2022-12-01T06:31:49.611Z,51.179264
2022-12-01T06:32:49.567Z,51.179306
2022-12-01T06:33:49.491Z,51.179295
2022-12-01T06:34:49.470Z,51.179272
2022-12-01T06:35:49.481Z,51.179256
2022-12-01T06:36:49.451Z,51.179249
2022-12-01T06:37:49.429Z,51.179249
2022-12-01T06:38:49.427Z,51.179222
2022-12-01T06:39:49.708Z,51.179199
2022-12-01T06:40:49.413Z,51.179230
2022-12-01T06:41:49.405Z,51.179256
2022-12-01T06:42:49.384Z,51.179241
2022-12-01T06:43:49.393Z,51.179249
2022-12-01T06:44:49.391Z,51.179245
2022-12-01T06:45:49.398Z,51.179245
2022-12-01T06:46:49.372Z,51.179245
2022-12-01T06:47:49.344Z,51.179249
2022-12-01T06:48:49.340Z,51.179264
2022-12-01T06:49:49.618Z,51.179237
2022-12-01T06:50:49.302Z,51.179222
2022-12-01T06:51:49.295Z,51.179256
2022-12-01T06:52:49.297Z,51.179272
2022-12-01T06:53:49.268Z,51.179295
2022-12-01T06:54:49.277Z,51.179291
2022-12-01T06:55:49.267Z,51.179264
2022-12-01T06:56:49.230Z,51.179256
2022-12-01T06:57:49.240Z,51.179249
2022-12-01T06:58:49.226Z,51.179207
2022-12-01T06:59:49.531Z,51.179211
2022-12-01T07:00:52.295Z,51.179214
2022-12-01T07:01:50.230Z,51.179260
2022-12-01T07:02:49.270Z,51.179264
2022-12-01T07:03:49.161Z,51.179272
2022-12-01T07:04:49.148Z,51.179249
2022-12-01T07:05:49.162Z,51.179264
2022-12-01T07:06:49.158Z,51.179256
2022-12-01T07:07:49.174Z,51.179291
2022-12-01T07:08:49.119Z,51.179276
2022-12-01T07:09:50.414Z,51.179276
2022-12-01T07:10:49.090Z,51.179291
2022-12-01T07:11:49.155Z,51.179264
2022-12-01T07:12:49.074Z,51.179264
2022-12-01T07:13:49.071Z,51.179253
2022-12-01T07:14:49.048Z,51.179268
2022-12-01T07:15:49.226Z,51.179245
2022-12-01T07:16:49.083Z,51.179214
2022-12-01T07:17:49.021Z,51.179230
2022-12-01T07:18:49.045Z,51.179260
2022-12-01T07:19:49.506Z,51.179276
2022-12-01T07:20:49.003Z,51.179283
2022-12-01T07:21:49.004Z,51.179291
2022-12-01T07:22:48.974Z,51.179283
2022-12-01T07:23:48.960Z,51.179264
2022-12-01T07:24:48.970Z,51.179234
2022-12-01T07:25:48.957Z,51.179256
2022-12-01T07:26:48.929Z,51.179203
2022-12-01T07:27:48.920Z,51.179256
2022-12-01T07:28:48.930Z,51.179214
2022-12-01T07:29:49.057Z,51.179218
2022-12-01T07:30:48.966Z,51.179226
2022-12-01T07:31:48.882Z,51.179234
2022-12-01T07:32:48.881Z,51.179241
2022-12-01T07:33:48.863Z,51.179272
2022-12-01T07:34:48.843Z,51.179283
2022-12-01T07:35:48.867Z,51.179253
2022-12-01T07:36:48.874Z,51.179234
2022-12-01T07:37:48.812Z,51.179195
2022-12-01T07:38:48.790Z,51.179176
2022-12-01T07:39:49.019Z,51.179211
2022-12-01T07:40:48.821Z,51.179234
2022-12-01T07:41:48.809Z,51.179169
2022-12-01T07:42:48.798Z,51.179214
2022-12-01T07:43:48.774Z,51.179241
2022-12-01T07:44:48.755Z,51.179310
2022-12-01T07:45:48.765Z,51.179260
2022-12-01T07:46:48.730Z,51.179230
2022-12-01T07:47:48.705Z,51.179253
2022-12-01T07:48:48.720Z,51.179226
2022-12-01T07:49:48.912Z,51.179214
2022-12-01T07:50:48.675Z,51.179218
2022-12-01T07:51:48.683Z,51.179188
2022-12-01T07:52:48.669Z,51.179195
2022-12-01T07:53:48.655Z,51.179131
2022-12-01T07:54:48.641Z,51.179142
2022-12-01T07:55:48.629Z,51.179142
2022-12-01T07:56:48.614Z,51.179195
2022-12-01T07:57:48.621Z,51.179222
2022-12-01T07:58:48.665Z,51.179230
2022-12-01T07:59:48.753Z,51.179222
2022-12-01T08:00:48.575Z,51.179184
2022-12-01T08:01:48.602Z,51.179153
2022-12-01T08:02:48.669Z,51.179150
2022-12-01T08:03:48.617Z,51.179161
2022-12-01T08:04:48.545Z,51.179169
2022-12-01T08:05:48.533Z,51.179207
2022-12-01T08:06:48.580Z,51.179192
2022-12-01T08:07:48.578Z,51.179173
2022-12-01T08:08:48.507Z,51.179161
2022-12-01T08:09:48.791Z,51.179169
2022-12-01T08:10:48.492Z,51.179180
2022-12-01T08:11:48.467Z,51.179165
2022-12-01T08:12:48.453Z,51.179176
2022-12-01T08:13:48.456Z,51.179169
2022-12-01T08:14:48.422Z,51.179111
2022-12-01T08:15:48.457Z,51.179142
2022-12-01T08:16:48.422Z,51.179161
2022-12-01T08:17:48.393Z,51.179218
2022-12-01T08:18:48.396Z,51.179169
2022-12-01T08:19:48.657Z,51.179138
2022-12-01T08:20:48.582Z,51.179264
2022-12-01T08:21:48.349Z,51.179192
2022-12-01T08:22:48.407Z,51.179226
2022-12-01T08:23:48.343Z,51.179199
2022-12-01T08:24:48.320Z,51.179234
2022-12-01T08:25:48.398Z,51.179234
2022-12-01T08:26:48.342Z,51.179237
2022-12-01T08:27:48.308Z,51.179222
2022-12-01T08:28:48.344Z,51.179203
2022-12-01T08:29:48.588Z,51.179234
2022-12-01T08:30:48.313Z,51.179195
2022-12-01T08:31:48.276Z,51.179222
2022-12-01T08:32:48.240Z,51.179184
2022-12-01T08:33:48.224Z,51.179203
2022-12-01T08:34:53.162Z,51.179245
2022-12-01T08:35:50.301Z,51.179253
2022-12-01T08:36:48.192Z,51.179237
2022-12-01T08:37:48.191Z,51.179211
2022-12-01T08:38:48.194Z,51.179214
2022-12-01T08:39:48.573Z,51.179234
2022-12-01T08:40:48.172Z,51.179214
2022-12-01T08:41:48.170Z,51.179192
2022-12-01T08:42:48.132Z,51.179199
2022-12-01T08:43:57.921Z,51.179195
2022-12-01T08:44:50.302Z,51.179226
2022-12-01T08:45:48.116Z,51.179184
2022-12-01T08:46:48.144Z,51.179184
2022-12-01T08:47:48.223Z,51.179192
2022-12-01T08:48:48.100Z,51.179203
2022-12-01T08:49:48.782Z,51.179211
2022-12-01T08:50:48.056Z,51.179226
2022-12-01T08:51:48.053Z,51.179249
2022-12-01T08:52:48.043Z,51.179207
2022-12-01T08:53:48.008Z,51.179214
2022-12-01T08:54:48.028Z,51.179222
2022-12-01T08:55:48.027Z,51.179241
2022-12-01T08:56:47.997Z,51.179237
2022-12-01T08:57:48.007Z,51.179241
2022-12-01T08:58:47.984Z,51.179260
2022-12-01T08:59:48.195Z,51.179272
2022-12-01T09:00:47.947Z,51.179295
2022-12-01T09:01:47.995Z,51.179283
2022-12-01T09:02:48.032Z,51.179306
2022-12-01T09:03:47.907Z,51.179256
2022-12-01T09:04:47.909Z,51.179245
2022-12-01T09:05:47.898Z,51.179245
2022-12-01T09:06:47.907Z,51.179260
2022-12-01T09:07:47.922Z,51.179222
2022-12-01T09:08:47.884Z,51.179211
2022-12-01T09:09:48.195Z,51.179127
2022-12-01T09:10:47.845Z,51.179188
2022-12-01T09:11:47.859Z,51.179237
2022-12-01T09:12:47.838Z,51.179268
2022-12-01T09:13:54.306Z,51.179241
2022-12-01T09:14:49.940Z,51.179218
2022-12-01T09:15:47.863Z,51.179276
2022-12-01T09:16:47.803Z,51.179272
2022-12-01T09:17:47.800Z,51.179260
2022-12-01T09:18:47.758Z,51.179241
2022-12-01T09:19:48.360Z,51.179234
2022-12-01T09:20:47.726Z,51.179234
2022-12-01T09:21:47.735Z,51.179237
2022-12-01T09:22:47.709Z,51.179222
2022-12-01T09:23:47.719Z,51.179192
2022-12-01T09:24:47.693Z,51.179222
2022-12-01T09:25:47.707Z,51.179268
2022-12-01T09:26:47.682Z,51.179253
2022-12-01T09:27:47.664Z,51.179218
2022-12-01T09:28:47.661Z,51.179199
2022-12-01T09:29:48.016Z,51.179214
2022-12-01T09:30:47.643Z,51.179226
2022-12-01T09:31:47.723Z,51.179180
2022-12-01T09:32:47.603Z,51.179203
2022-12-01T09:33:47.605Z,51.179211
2022-12-01T09:34:47.608Z,51.179264
2022-12-01T09:35:47.590Z,51.179241
2022-12-01T09:36:47.577Z,51.179218
2022-12-01T09:37:47.595Z,51.179249
2022-12-01T09:38:47.586Z,51.179218
2022-12-01T09:39:47.972Z,51.179211
2022-12-01T09:40:48.538Z,51.179214
2022-12-01T09:41:47.521Z,51.179230
2022-12-01T09:42:47.515Z,51.179207
2022-12-01T09:43:47.504Z,51.179226
2022-12-01T09:44:47.483Z,51.179203
2022-12-01T09:45:47.530Z,51.179237
2022-12-01T09:46:47.510Z,51.179253
2022-12-01T09:47:47.484Z,51.179222
2022-12-01T09:49:21.422Z,51.179253
2022-12-01T09:49:48.049Z,51.179245
2022-12-01T09:50:47.645Z,51.179226
2022-12-01T09:51:47.566Z,51.179234
2022-12-01T09:52:47.510Z,51.179211
2022-12-01T09:53:47.436Z,51.179226
2022-12-01T09:54:47.477Z,51.179199
2022-12-01T09:55:47.422Z,51.179184
2022-12-01T09:56:47.560Z,51.179146
2022-12-01T09:57:47.385Z,51.179138
2022-12-01T09:58:47.481Z,51.179157
2022-12-01T09:59:47.746Z,51.179184
2022-12-01T10:00:47.407Z,51.179180
2022-12-01T10:01:47.439Z,51.179195
2022-12-01T10:02:47.372Z,51.179195
2022-12-01T10:03:47.325Z,51.179214
2022-12-01T10:04:47.352Z,51.179230
2022-12-01T10:06:18.534Z,51.179211
2022-12-01T10:06:49.306Z,51.179199
2022-12-01T10:07:47.382Z,51.179184
2022-12-01T10:08:47.315Z,51.179230
2022-12-01T10:09:47.610Z,51.179222
2022-12-01T10:10:47.277Z,51.179218
2022-12-01T10:11:47.287Z,51.179173
2022-12-01T10:12:47.283Z,51.179176
2022-12-01T10:13:47.215Z,51.179184
2022-12-01T10:14:47.284Z,51.179188
2022-12-01T10:15:47.217Z,51.179199
2022-12-01T10:16:47.236Z,51.179234
2022-12-01T10:17:47.179Z,51.179218
2022-12-01T10:18:47.197Z,51.179241
2022-12-01T10:19:47.436Z,51.179256
2022-12-01T10:20:47.191Z,51.179237
2022-12-01T10:21:47.416Z,51.179211
2022-12-01T10:22:47.149Z,51.179203
2022-12-01T10:23:47.087Z,51.179207
2022-12-01T10:24:47.098Z,51.179169
2022-12-01T10:25:47.071Z,51.179173
2022-12-01T10:26:47.100Z,51.179199
2022-12-01T10:27:47.140Z,51.179214
2022-12-01T10:28:47.045Z,51.179226
2022-12-01T10:29:47.850Z,51.179234
2022-12-01T10:30:48.033Z,51.179211
2022-12-01T10:31:47.137Z,51.179184
2022-12-01T10:32:47.055Z,51.179195
2022-12-01T10:33:47.222Z,51.179226
2022-12-01T10:34:47.011Z,51.179180
2022-12-01T10:35:47.021Z,51.179173
2022-12-01T10:36:47.003Z,51.179214
2022-12-01T10:37:47.052Z,51.179234
2022-12-01T10:38:47.011Z,51.179241
2022-12-01T10:39:47.316Z,51.179249
2022-12-01T10:40:46.936Z,51.179241
2022-12-01T10:41:46.967Z,51.179260
2022-12-01T10:42:46.994Z,51.179211
2022-12-01T10:43:46.916Z,51.179264
2022-12-01T10:44:46.923Z,51.179245
2022-12-01T10:45:46.929Z,51.179218
2022-12-01T10:46:46.875Z,51.179184
2022-12-01T10:47:46.944Z,51.179226
2022-12-01T10:48:46.829Z,51.179180
2022-12-01T10:49:47.033Z,51.179214
2022-12-01T10:50:46.915Z,51.179234
2022-12-01T10:51:46.823Z,51.179245
2022-12-01T10:52:46.862Z,51.179237
2022-12-01T10:53:46.900Z,51.179260
2022-12-01T10:54:46.802Z,51.179264
2022-12-01T10:55:48.164Z,51.179272
2022-12-01T10:56:47.814Z,51.179287
2022-12-01T10:57:46.795Z,51.179230
2022-12-01T10:58:46.792Z,51.179222
2022-12-01T10:59:48.084Z,51.179222
2022-12-01T11:01:02.489Z,51.179218
2022-12-01T11:01:48.879Z,51.179237
2022-12-01T11:02:46.924Z,51.179260
2022-12-01T11:03:46.829Z,51.179249
2022-12-01T11:04:46.720Z,51.179211
2022-12-01T11:05:46.689Z,51.179211
2022-12-01T11:06:46.724Z,51.179234
2022-12-01T11:07:46.739Z,51.179241
2022-12-01T11:08:46.720Z,51.179268
2022-12-01T11:09:46.881Z,51.179272
2022-12-01T11:10:46.636Z,51.179211
2022-12-01T11:11:46.728Z,51.179241
2022-12-01T11:12:46.649Z,51.179237
2022-12-01T11:13:46.603Z,51.179214
2022-12-01T11:14:46.620Z,51.179188
2022-12-01T11:15:46.612Z,51.179260
2022-12-01T11:16:46.697Z,51.179283
2022-12-01T11:17:46.575Z,51.179260
2022-12-01T11:18:46.716Z,51.179253
2022-12-01T11:19:46.720Z,51.179310
2022-12-01T11:20:46.634Z,51.179317
2022-12-01T11:21:46.567Z,51.179298
2022-12-01T11:22:46.513Z,51.179287
2022-12-01T11:23:46.527Z,51.179287
2022-12-01T11:24:46.513Z,51.179264